Terminal Aerodrome Forecast
Issued by NWS

Home | Current Version | Previous Version | Text Only | Print | Product List | Glossary Off
Versions: 1 2 3 4 5 6 7 8 9 10 11 12 13 14 15 16 17 18 19 20 21 22 23 24

000
FTUS41 KCLE 150900 AAB
TAFFDY
TAF AMD
KFDY 150934Z 1510/1606 21005KT 4SM BR OVC060
      TEMPO 1510/1514 1 1/2SM BR SCT060
     FM151400 18006KT 4SM BR OVC015
     FM152100 17008KT 6SM HZ OVC035
     FM160300 13006KT 3SM -SHRA SCT012 OVC020=

USA.gov is the U.S. government's official web portal to all federal, state and local government web resources and services.